sensor_id;sensor_type;location;lat;lon;timestamp;P1;durP1;ratioP1;P2;durP2;ratioP2
71814;SDS011;59659;41.520;23.794;2023-09-19T00:00:32;7.30;;;3.93;;
71814;SDS011;59659;41.520;23.794;2023-09-19T00:01:45;4.90;;;3.17;;
71814;SDS011;59659;41.520;23.794;2023-09-19T00:02:57;5.90;;;3.83;;
71814;SDS011;59659;41.520;23.794;2023-09-19T00:04:13;6.03;;;3.20;;
71814;SDS011;59659;41.520;23.794;2023-09-19T00:05:26;6.33;;;3.87;;
71814;SDS011;59659;41.520;23.794;2023-09-19T00:06:40;5.80;;;3.73;;
71814;SDS011;59659;41.520;23.794;2023-09-19T00:07:52;9.30;;;3.83;;
71814;SDS011;59659;41.520;23.794;2023-09-19T00:09:06;4.57;;;3.10;;
71814;SDS011;59659;41.520;23.794;2023-09-19T00:10:22;7.70;;;4.07;;
71814;SDS011;59659;41.520;23.794;2023-09-19T00:11:36;12.03;;;3.60;;
71814;SDS011;59659;41.520;23.794;2023-09-19T00:12:47;7.43;;;3.93;;
71814;SDS011;59659;41.520;23.794;2023-09-19T00:13:59;5.07;;;3.10;;
71814;SDS011;59659;41.520;23.794;2023-09-19T00:15:11;7.27;;;3.83;;
71814;SDS011;59659;41.520;23.794;2023-09-19T00:16:22;8.17;;;5.20;;
71814;SDS011;59659;41.520;23.794;2023-09-19T00:17:34;10.73;;;4.13;;
71814;SDS011;59659;41.520;23.794;2023-09-19T00:18:46;8.87;;;4.23;;
71814;SDS011;59659;41.520;23.794;2023-09-19T00:19:57;5.37;;;3.23;;
71814;SDS011;59659;41.520;23.794;2023-09-19T00:21:09;7.63;;;3.87;;
71814;SDS011;59659;41.520;23.794;2023-09-19T00:22:21;8.87;;;3.40;;
71814;SDS011;59659;41.520;23.794;2023-09-19T00:23:33;6.37;;;3.73;;
71814;SDS011;59659;41.520;23.794;2023-09-19T00:24:45;7.47;;;4.20;;
71814;SDS011;59659;41.520;23.794;2023-09-19T00:26:00;7.53;;;3.60;;
71814;SDS011;59659;41.520;23.794;2023-09-19T00:27:12;6.83;;;3.50;;
71814;SDS011;59659;41.520;23.794;2023-09-19T00:28:24;5.83;;;3.50;;
71814;SDS011;59659;41.520;23.794;2023-09-19T00:29:35;5.57;;;3.03;;
71814;SDS011;59659;41.520;23.794;2023-09-19T00:30:47;5.93;;;3.47;;
71814;SDS011;59659;41.520;23.794;2023-09-19T00:32:01;6.70;;;3.97;;
71814;SDS011;59659;41.520;23.794;2023-09-19T00:33:16;5.40;;;3.77;;
71814;SDS011;59659;41.520;23.794;2023-09-19T00:34:31;5.57;;;3.43;;
71814;SDS011;59659;41.520;23.794;2023-09-19T00:35:49;5.07;;;3.40;;
71814;SDS011;59659;41.520;23.794;2023-09-19T00:37:01;5.60;;;3.57;;
71814;SDS011;59659;41.520;23.794;2023-09-19T00:38:13;6.30;;;3.77;;
71814;SDS011;59659;41.520;23.794;2023-09-19T00:39:28;6.50;;;3.30;;
71814;SDS011;59659;41.520;23.794;2023-09-19T00:40:45;6.40;;;3.63;;
71814;SDS011;59659;41.520;23.794;2023-09-19T00:41:57;6.57;;;3.93;;
71814;SDS011;59659;41.520;23.794;2023-09-19T00:43:09;5.23;;;3.27;;
71814;SDS011;59659;41.520;23.794;2023-09-19T00:44:21;4.73;;;3.13;;
71814;SDS011;59659;41.520;23.794;2023-09-19T00:45:34;6.10;;;3.67;;
71814;SDS011;59659;41.520;23.794;2023-09-19T00:46:47;4.20;;;2.83;;
71814;SDS011;59659;41.520;23.794;2023-09-19T00:48:01;6.20;;;3.50;;
71814;SDS011;59659;41.520;23.794;2023-09-19T00:49:15;7.07;;;3.50;;
71814;SDS011;59659;41.520;23.794;2023-09-19T00:50:27;8.23;;;3.83;;
71814;SDS011;59659;41.520;23.794;2023-09-19T00:51:39;5.87;;;3.60;;
71814;SDS011;59659;41.520;23.794;2023-09-19T00:52:53;6.63;;;3.90;;
71814;SDS011;59659;41.520;23.794;2023-09-19T00:54:08;8.60;;;3.97;;
71814;SDS011;59659;41.520;23.794;2023-09-19T00:55:20;7.77;;;3.90;;
71814;SDS011;59659;41.520;23.794;2023-09-19T00:56:32;4.57;;;3.00;;
71814;SDS011;59659;41.520;23.794;2023-09-19T00:57:44;8.07;;;5.00;;
71814;SDS011;59659;41.520;23.794;2023-09-19T00:58:55;5.53;;;3.43;;
71814;SDS011;59659;41.520;23.794;2023-09-19T01:00:08;5.67;;;3.17;;
71814;SDS011;59659;41.520;23.794;2023-09-19T01:01:26;4.40;;;2.73;;
71814;SDS011;59659;41.520;23.794;2023-09-19T01:02:38;7.07;;;3.47;;
71814;SDS011;59659;41.520;23.794;2023-09-19T01:03:50;9.23;;;3.97;;
71814;SDS011;59659;41.520;23.794;2023-09-19T01:05:02;8.30;;;3.23;;
71814;SDS011;59659;41.520;23.794;2023-09-19T01:06:15;5.87;;;3.30;;
71814;SDS011;59659;41.520;23.794;2023-09-19T01:07:29;7.00;;;4.10;;
71814;SDS011;59659;41.520;23.794;2023-09-19T01:08:41;5.37;;;3.13;;
71814;SDS011;59659;41.520;23.794;2023-09-19T01:09:53;6.73;;;3.30;;
71814;SDS011;59659;41.520;23.794;2023-09-19T01:11:20;7.77;;;3.33;;
71814;SDS011;59659;41.520;23.794;2023-09-19T01:15:25;5.17;;;3.17;;
71814;SDS011;59659;41.520;23.794;2023-09-19T01:22:07;6.10;;;3.50;;
71814;SDS011;59659;41.520;23.794;2023-09-19T01:23:21;5.47;;;3.33;;
71814;SDS011;59659;41.520;23.794;2023-09-19T01:26:00;5.60;;;3.40;;
71814;SDS011;59659;41.520;23.794;2023-09-19T01:28:45;5.93;;;4.03;;
71814;SDS011;59659;41.520;23.794;2023-09-19T01:30:13;9.37;;;4.20;;
71814;SDS011;59659;41.520;23.794;2023-09-19T01:31:25;5.10;;;3.60;;
71814;SDS011;59659;41.520;23.794;2023-09-19T01:32:40;7.00;;;3.70;;
71814;SDS011;59659;41.520;23.794;2023-09-19T01:33:56;7.70;;;3.60;;
71814;SDS011;59659;41.520;23.794;2023-09-19T01:35:08;10.17;;;4.33;;
71814;SDS011;59659;41.520;23.794;2023-09-19T01:36:25;7.20;;;4.77;;
71814;SDS011;59659;41.520;23.794;2023-09-19T01:37:36;8.80;;;4.30;;
71814;SDS011;59659;41.520;23.794;2023-09-19T01:38:50;8.10;;;4.50;;
71814;SDS011;59659;41.520;23.794;2023-09-19T01:40:02;7.20;;;4.23;;
71814;SDS011;59659;41.520;23.794;2023-09-19T01:41:43;7.00;;;4.17;;
71814;SDS011;59659;41.520;23.794;2023-09-19T01:43:10;8.87;;;4.37;;
71814;SDS011;59659;41.520;23.794;2023-09-19T01:47:13;10.37;;;4.83;;
71814;SDS011;59659;41.520;23.794;2023-09-19T01:48:40;11.00;;;5.33;;
71814;SDS011;59659;41.520;23.794;2023-09-19T01:50:12;10.60;;;4.40;;
71814;SDS011;59659;41.520;23.794;2023-09-19T01:53:05;10.07;;;4.90;;
71814;SDS011;59659;41.520;23.794;2023-09-19T01:54:24;10.10;;;4.60;;
71814;SDS011;59659;41.520;23.794;2023-09-19T01:55:38;12.07;;;4.87;;
71814;SDS011;59659;41.520;23.794;2023-09-19T01:56:59;10.97;;;4.43;;
71814;SDS011;59659;41.520;23.794;2023-09-19T01:59:49;8.37;;;4.87;;
71814;SDS011;59659;41.520;23.794;2023-09-19T02:01:03;6.60;;;4.33;;
71814;SDS011;59659;41.520;23.794;2023-09-19T02:02:17;10.43;;;4.73;;
71814;SDS011;59659;41.520;23.794;2023-09-19T02:03:29;6.93;;;4.23;;
71814;SDS011;59659;41.520;23.794;2023-09-19T02:04:42;7.37;;;4.20;;
71814;SDS011;59659;41.520;23.794;2023-09-19T02:05:54;8.10;;;4.57;;
71814;SDS011;59659;41.520;23.794;2023-09-19T02:07:06;7.23;;;4.40;;
71814;SDS011;59659;41.520;23.794;2023-09-19T02:08:19;10.27;;;4.63;;
71814;SDS011;59659;41.520;23.794;2023-09-19T02:09:31;10.23;;;4.07;;
71814;SDS011;59659;41.520;23.794;2023-09-19T02:10:46;6.33;;;4.03;;
71814;SDS011;59659;41.520;23.794;2023-09-19T02:12:01;8.23;;;4.20;;
71814;SDS011;59659;41.520;23.794;2023-09-19T02:13:16;7.30;;;4.40;;
71814;SDS011;59659;41.520;23.794;2023-09-19T02:14:28;5.83;;;3.40;;
71814;SDS011;59659;41.520;23.794;2023-09-19T02:15:41;15.00;;;4.00;;
71814;SDS011;59659;41.520;23.794;2023-09-19T02:16:52;7.00;;;3.73;;
71814;SDS011;59659;41.520;23.794;2023-09-19T02:18:05;6.40;;;3.53;;
71814;SDS011;59659;41.520;23.794;2023-09-19T02:19:17;5.83;;;3.23;;
71814;SDS011;59659;41.520;23.794;2023-09-19T02:20:29;6.70;;;3.70;;
71814;SDS011;59659;41.520;23.794;2023-09-19T02:21:41;7.10;;;3.93;;
71814;SDS011;59659;41.520;23.794;2023-09-19T02:22:52;5.30;;;3.57;;
71814;SDS011;59659;41.520;23.794;2023-09-19T02:24:04;5.83;;;3.97;;
71814;SDS011;59659;41.520;23.794;2023-09-19T02:25:16;11.47;;;3.37;;
71814;SDS011;59659;41.520;23.794;2023-09-19T02:26:27;7.73;;;3.83;;
71814;SDS011;59659;41.520;23.794;2023-09-19T02:27:39;8.47;;;3.67;;
71814;SDS011;59659;41.520;23.794;2023-09-19T02:28:51;8.30;;;3.67;;
71814;SDS011;59659;41.520;23.794;2023-09-19T02:30:03;5.37;;;3.43;;
71814;SDS011;59659;41.520;23.794;2023-09-19T02:31:15;5.93;;;3.53;;
71814;SDS011;59659;41.520;23.794;2023-09-19T02:32:28;4.93;;;3.50;;
71814;SDS011;59659;41.520;23.794;2023-09-19T02:33:42;6.80;;;3.43;;
71814;SDS011;59659;41.520;23.794;2023-09-19T02:34:54;8.37;;;3.97;;
71814;SDS011;59659;41.520;23.794;2023-09-19T02:36:06;6.17;;;2.90;;
71814;SDS011;59659;41.520;23.794;2023-09-19T02:37:19;8.50;;;3.90;;
71814;SDS011;59659;41.520;23.794;2023-09-19T02:38:31;6.13;;;3.63;;
71814;SDS011;59659;41.520;23.794;2023-09-19T02:39:42;6.57;;;3.70;;
71814;SDS011;59659;41.520;23.794;2023-09-19T02:40:54;8.03;;;4.17;;
71814;SDS011;59659;41.520;23.794;2023-09-19T02:42:08;6.60;;;3.90;;
71814;SDS011;59659;41.520;23.794;2023-09-19T02:43:20;8.03;;;3.83;;
71814;SDS011;59659;41.520;23.794;2023-09-19T02:44:33;6.13;;;3.40;;
71814;SDS011;59659;41.520;23.794;2023-09-19T02:45:45;7.17;;;4.00;;
71814;SDS011;59659;41.520;23.794;2023-09-19T02:46:58;7.40;;;3.63;;
71814;SDS011;59659;41.520;23.794;2023-09-19T02:48:10;6.73;;;3.70;;
71814;SDS011;59659;41.520;23.794;2023-09-19T02:49:23;5.97;;;3.90;;
71814;SDS011;59659;41.520;23.794;2023-09-19T02:50:34;8.67;;;4.13;;
71814;SDS011;59659;41.520;23.794;2023-09-19T02:51:46;6.17;;;4.10;;
71814;SDS011;59659;41.520;23.794;2023-09-19T02:52:58;6.23;;;3.97;;
71814;SDS011;59659;41.520;23.794;2023-09-19T02:54:10;6.93;;;3.57;;
71814;SDS011;59659;41.520;23.794;2023-09-19T02:55:23;5.80;;;3.77;;
71814;SDS011;59659;41.520;23.794;2023-09-19T02:56:34;8.03;;;4.13;;
71814;SDS011;59659;41.520;23.794;2023-09-19T02:57:50;5.30;;;3.70;;
71814;SDS011;59659;41.520;23.794;2023-09-19T02:59:02;7.93;;;4.00;;
71814;SDS011;59659;41.520;23.794;2023-09-19T03:00:14;6.97;;;3.70;;
71814;SDS011;59659;41.520;23.794;2023-09-19T03:01:26;6.57;;;3.63;;
71814;SDS011;59659;41.520;23.794;2023-09-19T03:02:38;6.33;;;3.87;;
71814;SDS011;59659;41.520;23.794;2023-09-19T03:03:52;6.43;;;4.07;;
71814;SDS011;59659;41.520;23.794;2023-09-19T03:05:05;11.33;;;3.90;;
71814;SDS011;59659;41.520;23.794;2023-09-19T03:06:17;5.27;;;3.13;;
71814;SDS011;59659;41.520;23.794;2023-09-19T03:07:29;5.63;;;3.60;;
71814;SDS011;59659;41.520;23.794;2023-09-19T03:08:40;7.13;;;4.03;;
71814;SDS011;59659;41.520;23.794;2023-09-19T03:09:53;6.07;;;3.83;;
71814;SDS011;59659;41.520;23.794;2023-09-19T03:11:06;7.00;;;3.47;;
71814;SDS011;59659;41.520;23.794;2023-09-19T03:12:20;7.47;;;4.03;;
71814;SDS011;59659;41.520;23.794;2023-09-19T03:13:32;6.27;;;2.93;;
71814;SDS011;59659;41.520;23.794;2023-09-19T03:14:44;7.30;;;4.60;;
71814;SDS011;59659;41.520;23.794;2023-09-19T03:15:55;6.57;;;3.23;;
71814;SDS011;59659;41.520;23.794;2023-09-19T03:17:07;6.53;;;3.63;;
71814;SDS011;59659;41.520;23.794;2023-09-19T03:18:20;7.60;;;3.40;;
71814;SDS011;59659;41.520;23.794;2023-09-19T03:19:32;5.90;;;3.20;;
71814;SDS011;59659;41.520;23.794;2023-09-19T03:20:52;7.53;;;4.17;;
71814;SDS011;59659;41.520;23.794;2023-09-19T03:22:04;6.27;;;2.87;;
71814;SDS011;59659;41.520;23.794;2023-09-19T03:23:15;8.10;;;3.00;;
71814;SDS011;59659;41.520;23.794;2023-09-19T03:24:28;7.60;;;3.47;;
71814;SDS011;59659;41.520;23.794;2023-09-19T03:25:40;6.37;;;3.70;;
71814;SDS011;59659;41.520;23.794;2023-09-19T03:26:52;5.63;;;3.57;;
71814;SDS011;59659;41.520;23.794;2023-09-19T03:28:04;7.87;;;2.90;;
71814;SDS011;59659;41.520;23.794;2023-09-19T03:29:18;3.70;;;2.90;;
71814;SDS011;59659;41.520;23.794;2023-09-19T03:30:30;7.07;;;3.60;;
71814;SDS011;59659;41.520;23.794;2023-09-19T03:31:42;5.43;;;3.03;;
71814;SDS011;59659;41.520;23.794;2023-09-19T03:32:53;8.83;;;4.03;;
71814;SDS011;59659;41.520;23.794;2023-09-19T03:34:05;4.87;;;3.27;;
71814;SDS011;59659;41.520;23.794;2023-09-19T03:35:17;5.43;;;3.40;;
71814;SDS011;59659;41.520;23.794;2023-09-19T03:36:29;6.17;;;3.77;;
71814;SDS011;59659;41.520;23.794;2023-09-19T03:37:41;6.33;;;3.27;;
71814;SDS011;59659;41.520;23.794;2023-09-19T03:38:53;5.83;;;3.93;;
71814;SDS011;59659;41.520;23.794;2023-09-19T03:40:05;5.90;;;3.40;;
71814;SDS011;59659;41.520;23.794;2023-09-19T03:41:16;5.60;;;3.23;;
71814;SDS011;59659;41.520;23.794;2023-09-19T03:42:28;6.17;;;3.00;;
71814;SDS011;59659;41.520;23.794;2023-09-19T03:43:40;4.37;;;2.93;;
71814;SDS011;59659;41.520;23.794;2023-09-19T03:44:52;4.63;;;3.63;;
71814;SDS011;59659;41.520;23.794;2023-09-19T03:46:04;6.20;;;3.73;;
71814;SDS011;59659;41.520;23.794;2023-09-19T03:47:16;8.20;;;4.17;;
71814;SDS011;59659;41.520;23.794;2023-09-19T03:48:29;5.33;;;3.37;;
71814;SDS011;59659;41.520;23.794;2023-09-19T03:49:42;5.00;;;3.30;;
71814;SDS011;59659;41.520;23.794;2023-09-19T03:50:53;4.27;;;2.80;;
71814;SDS011;59659;41.520;23.794;2023-09-19T03:52:07;7.37;;;3.20;;
71814;SDS011;59659;41.520;23.794;2023-09-19T03:53:19;7.83;;;3.20;;
71814;SDS011;59659;41.520;23.794;2023-09-19T03:54:30;8.50;;;3.90;;
71814;SDS011;59659;41.520;23.794;2023-09-19T03:55:44;6.93;;;3.93;;
71814;SDS011;59659;41.520;23.794;2023-09-19T03:56:56;7.33;;;3.63;;
71814;SDS011;59659;41.520;23.794;2023-09-19T03:58:07;7.73;;;3.73;;
71814;SDS011;59659;41.520;23.794;2023-09-19T03:59:19;5.23;;;3.63;;
71814;SDS011;59659;41.520;23.794;2023-09-19T04:00:30;5.30;;;3.67;;
71814;SDS011;59659;41.520;23.794;2023-09-19T04:01:42;6.53;;;3.47;;
71814;SDS011;59659;41.520;23.794;2023-09-19T04:02:54;7.00;;;3.43;;
71814;SDS011;59659;41.520;23.794;2023-09-19T04:04:08;8.07;;;3.90;;
71814;SDS011;59659;41.520;23.794;2023-09-19T04:05:19;9.37;;;3.93;;
71814;SDS011;59659;41.520;23.794;2023-09-19T04:06:31;7.17;;;4.20;;
71814;SDS011;59659;41.520;23.794;2023-09-19T04:07:43;7.10;;;3.57;;
71814;SDS011;59659;41.520;23.794;2023-09-19T04:08:55;6.63;;;3.90;;
71814;SDS011;59659;41.520;23.794;2023-09-19T04:10:08;6.67;;;3.70;;
71814;SDS011;59659;41.520;23.794;2023-09-19T04:11:21;4.53;;;3.30;;
71814;SDS011;59659;41.520;23.794;2023-09-19T04:12:33;9.63;;;3.93;;
71814;SDS011;59659;41.520;23.794;2023-09-19T04:13:44;6.17;;;3.60;;
71814;SDS011;59659;41.520;23.794;2023-09-19T04:14:56;6.03;;;3.73;;
71814;SDS011;59659;41.520;23.794;2023-09-19T04:16:07;4.50;;;3.33;;
71814;SDS011;59659;41.520;23.794;2023-09-19T04:17:19;6.83;;;3.60;;
71814;SDS011;59659;41.520;23.794;2023-09-19T04:18:32;6.90;;;3.60;;
71814;SDS011;59659;41.520;23.794;2023-09-19T04:19:44;13.97;;;4.07;;
71814;SDS011;59659;41.520;23.794;2023-09-19T04:20:57;7.47;;;3.93;;
71814;SDS011;59659;41.520;23.794;2023-09-19T04:22:09;9.50;;;3.77;;
71814;SDS011;59659;41.520;23.794;2023-09-19T04:23:20;8.10;;;4.27;;
71814;SDS011;59659;41.520;23.794;2023-09-19T04:24:32;6.13;;;3.57;;
71814;SDS011;59659;41.520;23.794;2023-09-19T04:25:44;4.63;;;3.50;;
71814;SDS011;59659;41.520;23.794;2023-09-19T04:26:55;6.23;;;3.73;;
71814;SDS011;59659;41.520;23.794;2023-09-19T04:28:08;6.77;;;4.17;;
71814;SDS011;59659;41.520;23.794;2023-09-19T04:29:22;6.27;;;4.30;;
71814;SDS011;59659;41.520;23.794;2023-09-19T04:30:33;6.53;;;3.60;;
71814;SDS011;59659;41.520;23.794;2023-09-19T04:31:45;7.30;;;4.10;;
71814;SDS011;59659;41.520;23.794;2023-09-19T04:32:57;12.63;;;5.50;;
71814;SDS011;59659;41.520;23.794;2023-09-19T04:34:09;12.23;;;5.57;;
71814;SDS011;59659;41.520;23.794;2023-09-19T04:35:21;15.67;;;5.93;;
71814;SDS011;59659;41.520;23.794;2023-09-19T04:36:33;9.97;;;5.83;;
71814;SDS011;59659;41.520;23.794;2023-09-19T04:37:46;10.97;;;6.00;;
71814;SDS011;59659;41.520;23.794;2023-09-19T04:38:59;12.27;;;6.43;;
71814;SDS011;59659;41.520;23.794;2023-09-19T04:40:11;11.17;;;5.27;;
71814;SDS011;59659;41.520;23.794;2023-09-19T04:41:29;11.50;;;5.72;;
71814;SDS011;59659;41.520;23.794;2023-09-19T04:42:41;8.17;;;5.00;;
71814;SDS011;59659;41.520;23.794;2023-09-19T04:43:53;8.17;;;4.93;;
71814;SDS011;59659;41.520;23.794;2023-09-19T04:45:05;9.75;;;5.47;;
71814;SDS011;59659;41.520;23.794;2023-09-19T04:46:17;11.13;;;5.63;;
71814;SDS011;59659;41.520;23.794;2023-09-19T04:47:29;11.37;;;6.03;;
71814;SDS011;59659;41.520;23.794;2023-09-19T04:48:41;10.38;;;5.90;;
71814;SDS011;59659;41.520;23.794;2023-09-19T04:49:52;11.10;;;5.93;;
71814;SDS011;59659;41.520;23.794;2023-09-19T04:51:04;10.40;;;5.80;;
71814;SDS011;59659;41.520;23.794;2023-09-19T04:52:16;9.20;;;5.63;;
71814;SDS011;59659;41.520;23.794;2023-09-19T04:53:28;11.23;;;5.73;;
71814;SDS011;59659;41.520;23.794;2023-09-19T04:54:39;17.67;;;6.10;;
71814;SDS011;59659;41.520;23.794;2023-09-19T04:55:52;12.00;;;6.27;;
71814;SDS011;59659;41.520;23.794;2023-09-19T04:57:04;11.73;;;5.73;;
71814;SDS011;59659;41.520;23.794;2023-09-19T04:58:17;9.60;;;6.00;;
71814;SDS011;59659;41.520;23.794;2023-09-19T04:59:29;13.97;;;6.27;;
71814;SDS011;59659;41.520;23.794;2023-09-19T05:00:40;12.97;;;7.30;;
71814;SDS011;59659;41.520;23.794;2023-09-19T05:01:52;15.03;;;6.80;;
71814;SDS011;59659;41.520;23.794;2023-09-19T05:03:04;8.97;;;5.77;;
71814;SDS011;59659;41.520;23.794;2023-09-19T05:04:17;15.03;;;6.20;;
71814;SDS011;59659;41.520;23.794;2023-09-19T05:05:29;15.53;;;6.10;;
71814;SDS011;59659;41.520;23.794;2023-09-19T05:06:41;16.23;;;6.80;;
71814;SDS011;59659;41.520;23.794;2023-09-19T05:07:57;11.63;;;6.47;;
71814;SDS011;59659;41.520;23.794;2023-09-19T05:09:16;12.93;;;6.13;;
71814;SDS011;59659;41.520;23.794;2023-09-19T05:10:31;12.20;;;5.83;;
71814;SDS011;59659;41.520;23.794;2023-09-19T05:11:43;9.83;;;5.87;;
71814;SDS011;59659;41.520;23.794;2023-09-19T05:12:55;13.57;;;7.10;;
71814;SDS011;59659;41.520;23.794;2023-09-19T05:14:06;11.37;;;5.80;;
71814;SDS011;59659;41.520;23.794;2023-09-19T05:15:18;9.30;;;5.87;;
71814;SDS011;59659;41.520;23.794;2023-09-19T05:16:30;12.20;;;5.27;;
71814;SDS011;59659;41.520;23.794;2023-09-19T05:17:49;13.50;;;6.33;;
71814;SDS011;59659;41.520;23.794;2023-09-19T05:19:08;10.87;;;5.90;;
71814;SDS011;59659;41.520;23.794;2023-09-19T05:20:23;7.83;;;5.17;;
71814;SDS011;59659;41.520;23.794;2023-09-19T05:21:41;12.50;;;5.53;;
71814;SDS011;59659;41.520;23.794;2023-09-19T05:23:02;9.93;;;5.83;;
71814;SDS011;59659;41.520;23.794;2023-09-19T05:24:14;13.47;;;5.70;;
71814;SDS011;59659;41.520;23.794;2023-09-19T05:25:28;10.23;;;5.07;;
71814;SDS011;59659;41.520;23.794;2023-09-19T05:26:40;14.67;;;6.03;;
71814;SDS011;59659;41.520;23.794;2023-09-19T05:27:58;14.70;;;6.60;;
71814;SDS011;59659;41.520;23.794;2023-09-19T05:29:10;9.87;;;5.57;;
71814;SDS011;59659;41.520;23.794;2023-09-19T05:30:22;11.57;;;5.73;;
71814;SDS011;59659;41.520;23.794;2023-09-19T05:31:34;16.60;;;6.00;;
71814;SDS011;59659;41.520;23.794;2023-09-19T05:32:48;9.53;;;4.57;;
71814;SDS011;59659;41.520;23.794;2023-09-19T05:33:59;12.33;;;6.17;;
71814;SDS011;59659;41.520;23.794;2023-09-19T05:35:12;11.13;;;5.87;;
71814;SDS011;59659;41.520;23.794;2023-09-19T05:36:24;9.43;;;4.70;;
71814;SDS011;59659;41.520;23.794;2023-09-19T05:37:36;12.10;;;5.37;;
71814;SDS011;59659;41.520;23.794;2023-09-19T05:38:48;12.17;;;4.67;;
71814;SDS011;59659;41.520;23.794;2023-09-19T05:40:02;8.37;;;4.80;;
71814;SDS011;59659;41.520;23.794;2023-09-19T05:41:18;7.97;;;5.20;;
71814;SDS011;59659;41.520;23.794;2023-09-19T05:42:30;9.17;;;4.97;;
71814;SDS011;59659;41.520;23.794;2023-09-19T05:43:41;7.80;;;4.57;;
71814;SDS011;59659;41.520;23.794;2023-09-19T05:44:54;14.33;;;4.87;;
71814;SDS011;59659;41.520;23.794;2023-09-19T05:46:06;10.23;;;4.57;;
71814;SDS011;59659;41.520;23.794;2023-09-19T05:47:19;7.97;;;4.50;;
71814;SDS011;59659;41.520;23.794;2023-09-19T05:48:31;8.60;;;5.20;;
71814;SDS011;59659;41.520;23.794;2023-09-19T05:49:44;6.67;;;4.47;;
71814;SDS011;59659;41.520;23.794;2023-09-19T05:50:56;8.47;;;4.77;;
71814;SDS011;59659;41.520;23.794;2023-09-19T05:52:07;10.97;;;5.70;;
71814;SDS011;59659;41.520;23.794;2023-09-19T05:53:19;12.27;;;5.50;;
71814;SDS011;59659;41.520;23.794;2023-09-19T05:54:31;11.73;;;5.17;;
71814;SDS011;59659;41.520;23.794;2023-09-19T05:55:42;9.00;;;4.93;;
71814;SDS011;59659;41.520;23.794;2023-09-19T05:56:54;9.37;;;5.43;;
71814;SDS011;59659;41.520;23.794;2023-09-19T05:58:06;8.83;;;5.20;;
71814;SDS011;59659;41.520;23.794;2023-09-19T05:59:19;9.87;;;5.20;;
71814;SDS011;59659;41.520;23.794;2023-09-19T06:00:30;9.70;;;4.80;;
71814;SDS011;59659;41.520;23.794;2023-09-19T06:01:43;10.90;;;4.77;;
71814;SDS011;59659;41.520;23.794;2023-09-19T06:02:55;8.87;;;5.10;;
71814;SDS011;59659;41.520;23.794;2023-09-19T06:04:08;13.93;;;5.10;;
71814;SDS011;59659;41.520;23.794;2023-09-19T06:05:20;9.00;;;5.60;;
71814;SDS011;59659;41.520;23.794;2023-09-19T06:06:31;7.37;;;5.13;;
71814;SDS011;59659;41.520;23.794;2023-09-19T06:07:45;11.87;;;4.90;;
71814;SDS011;59659;41.520;23.794;2023-09-19T06:08:56;11.40;;;5.23;;
71814;SDS011;59659;41.520;23.794;2023-09-19T06:10:09;8.70;;;4.43;;
71814;SDS011;59659;41.520;23.794;2023-09-19T06:11:21;9.37;;;5.57;;
71814;SDS011;59659;41.520;23.794;2023-09-19T06:12:33;13.20;;;4.60;;
71814;SDS011;59659;41.520;23.794;2023-09-19T06:13:48;10.97;;;4.90;;
71814;SDS011;59659;41.520;23.794;2023-09-19T06:15:00;7.90;;;5.10;;
71814;SDS011;59659;41.520;23.794;2023-09-19T06:16:12;10.87;;;5.43;;
71814;SDS011;59659;41.520;23.794;2023-09-19T06:17:23;9.00;;;4.97;;
71814;SDS011;59659;41.520;23.794;2023-09-19T06:18:35;9.00;;;5.03;;
71814;SDS011;59659;41.520;23.794;2023-09-19T06:19:47;8.57;;;5.07;;
71814;SDS011;59659;41.520;23.794;2023-09-19T06:21:01;10.13;;;5.60;;
71814;SDS011;59659;41.520;23.794;2023-09-19T06:22:18;8.50;;;5.07;;
71814;SDS011;59659;41.520;23.794;2023-09-19T06:23:30;8.00;;;4.93;;
71814;SDS011;59659;41.520;23.794;2023-09-19T06:24:42;10.90;;;5.10;;
71814;SDS011;59659;41.520;23.794;2023-09-19T06:25:53;10.50;;;5.43;;
71814;SDS011;59659;41.520;23.794;2023-09-19T06:27:06;9.03;;;4.77;;
71814;SDS011;59659;41.520;23.794;2023-09-19T06:28:18;11.87;;;5.03;;
71814;SDS011;59659;41.520;23.794;2023-09-19T06:29:35;11.87;;;5.23;;
71814;SDS011;59659;41.520;23.794;2023-09-19T06:30:48;10.37;;;4.60;;
71814;SDS011;59659;41.520;23.794;2023-09-19T06:32:00;11.60;;;4.80;;
71814;SDS011;59659;41.520;23.794;2023-09-19T06:33:12;8.37;;;5.07;;
71814;SDS011;59659;41.520;23.794;2023-09-19T06:34:27;7.80;;;4.50;;
71814;SDS011;59659;41.520;23.794;2023-09-19T06:35:38;9.93;;;5.03;;
71814;SDS011;59659;41.520;23.794;2023-09-19T06:36:51;9.17;;;4.60;;
71814;SDS011;59659;41.520;23.794;2023-09-19T06:38:03;11.10;;;5.17;;
71814;SDS011;59659;41.520;23.794;2023-09-19T06:39:15;8.90;;;4.60;;
71814;SDS011;59659;41.520;23.794;2023-09-19T06:40:27;11.90;;;5.17;;
71814;SDS011;59659;41.520;23.794;2023-09-19T06:41:39;8.30;;;3.93;;
71814;SDS011;59659;41.520;23.794;2023-09-19T06:42:53;8.93;;;4.87;;
71814;SDS011;59659;41.520;23.794;2023-09-19T06:44:05;6.63;;;4.43;;
71814;SDS011;59659;41.520;23.794;2023-09-19T06:45:17;9.10;;;4.37;;
71814;SDS011;59659;41.520;23.794;2023-09-19T06:46:33;8.57;;;4.63;;
71814;SDS011;59659;41.520;23.794;2023-09-19T06:47:46;7.63;;;4.23;;
71814;SDS011;59659;41.520;23.794;2023-09-19T06:49:02;7.70;;;4.20;;
71814;SDS011;59659;41.520;23.794;2023-09-19T06:50:18;8.90;;;4.40;;
71814;SDS011;59659;41.520;23.794;2023-09-19T06:51:31;8.23;;;4.60;;
71814;SDS011;59659;41.520;23.794;2023-09-19T06:52:43;9.97;;;4.23;;
71814;SDS011;59659;41.520;23.794;2023-09-19T06:53:54;11.53;;;4.60;;
71814;SDS011;59659;41.520;23.794;2023-09-19T06:55:08;14.10;;;5.50;;
71814;SDS011;59659;41.520;23.794;2023-09-19T06:56:21;7.23;;;5.00;;
71814;SDS011;59659;41.520;23.794;2023-09-19T06:57:36;8.77;;;4.93;;
71814;SDS011;59659;41.520;23.794;2023-09-19T06:58:47;7.40;;;4.47;;
71814;SDS011;59659;41.520;23.794;2023-09-19T06:59:59;9.43;;;4.80;;
71814;SDS011;59659;41.520;23.794;2023-09-19T07:01:12;9.37;;;4.83;;
71814;SDS011;59659;41.520;23.794;2023-09-19T07:02:27;11.07;;;5.63;;
71814;SDS011;59659;41.520;23.794;2023-09-19T07:03:38;8.50;;;4.23;;
71814;SDS011;59659;41.520;23.794;2023-09-19T07:04:51;8.10;;;5.20;;
71814;SDS011;59659;41.520;23.794;2023-09-19T07:06:03;12.60;;;5.10;;
71814;SDS011;59659;41.520;23.794;2023-09-19T07:07:16;8.30;;;4.53;;
71814;SDS011;59659;41.520;23.794;2023-09-19T07:08:27;10.70;;;5.13;;
71814;SDS011;59659;41.520;23.794;2023-09-19T07:09:39;10.00;;;5.10;;
71814;SDS011;59659;41.520;23.794;2023-09-19T07:10:51;6.07;;;4.37;;
71814;SDS011;59659;41.520;23.794;2023-09-19T07:12:05;9.03;;;4.60;;
71814;SDS011;59659;41.520;23.794;2023-09-19T07:13:17;10.23;;;5.33;;
71814;SDS011;59659;41.520;23.794;2023-09-19T07:14:29;8.63;;;5.00;;
71814;SDS011;59659;41.520;23.794;2023-09-19T07:15:42;8.63;;;4.30;;
71814;SDS011;59659;41.520;23.794;2023-09-19T07:16:58;10.53;;;5.13;;
71814;SDS011;59659;41.520;23.794;2023-09-19T07:18:11;9.57;;;4.33;;
71814;SDS011;59659;41.520;23.794;2023-09-19T07:19:24;9.80;;;6.13;;
71814;SDS011;59659;41.520;23.794;2023-09-19T07:20:35;9.73;;;4.70;;
71814;SDS011;59659;41.520;23.794;2023-09-19T07:21:47;7.53;;;5.07;;
71814;SDS011;59659;41.520;23.794;2023-09-19T07:22:59;9.23;;;5.03;;
71814;SDS011;59659;41.520;23.794;2023-09-19T07:24:13;9.07;;;4.83;;
71814;SDS011;59659;41.520;23.794;2023-09-19T07:25:25;10.97;;;4.60;;
71814;SDS011;59659;41.520;23.794;2023-09-19T07:26:37;12.20;;;5.20;;
71814;SDS011;59659;41.520;23.794;2023-09-19T07:27:51;9.27;;;5.40;;
71814;SDS011;59659;41.520;23.794;2023-09-19T07:29:03;9.70;;;4.90;;